sensor_id;sensor_type;location;lat;lon;timestamp;P1;durP1;ratioP1;P2;durP2;ratioP2
11414;SDS011;5763;42.714;23.244;2023-05-24T00:02:19;4.82;;;4.32;;
11414;SDS011;5763;42.714;23.244;2023-05-24T00:04:47;5.47;;;4.35;;
11414;SDS011;5763;42.714;23.244;2023-05-24T00:07:14;5.72;;;3.92;;
11414;SDS011;5763;42.714;23.244;2023-05-24T00:09:41;4.43;;;3.65;;
11414;SDS011;5763;42.714;23.244;2023-05-24T00:12:09;6.47;;;4.88;;
11414;SDS011;5763;42.714;23.244;2023-05-24T00:14:36;6.32;;;4.07;;
11414;SDS011;5763;42.714;23.244;2023-05-24T00:17:03;5.68;;;4.63;;
11414;SDS011;5763;42.714;23.244;2023-05-24T00:19:30;4.78;;;4.35;;
11414;SDS011;5763;42.714;23.244;2023-05-24T00:21:57;5.43;;;3.97;;
11414;SDS011;5763;42.714;23.244;2023-05-24T00:24:23;5.30;;;4.80;;
11414;SDS011;5763;42.714;23.244;2023-05-24T00:26:50;4.57;;;3.90;;
11414;SDS011;5763;42.714;23.244;2023-05-24T00:29:18;5.78;;;4.55;;
11414;SDS011;5763;42.714;23.244;2023-05-24T00:31:45;4.68;;;3.90;;
11414;SDS011;5763;42.714;23.244;2023-05-24T00:34:12;5.30;;;4.32;;
11414;SDS011;5763;42.714;23.244;2023-05-24T00:36:38;5.15;;;4.47;;
11414;SDS011;5763;42.714;23.244;2023-05-24T00:39:05;5.57;;;4.03;;
11414;SDS011;5763;42.714;23.244;2023-05-24T00:41:32;4.40;;;3.95;;
11414;SDS011;5763;42.714;23.244;2023-05-24T00:43:58;4.15;;;3.75;;
11414;SDS011;5763;42.714;23.244;2023-05-24T00:46:27;7.40;;;4.43;;
11414;SDS011;5763;42.714;23.244;2023-05-24T00:48:55;5.65;;;4.40;;
11414;SDS011;5763;42.714;23.244;2023-05-24T00:51:22;5.63;;;4.43;;
11414;SDS011;5763;42.714;23.244;2023-05-24T00:53:52;4.07;;;3.67;;
11414;SDS011;5763;42.714;23.244;2023-05-24T00:56:19;4.72;;;4.10;;
11414;SDS011;5763;42.714;23.244;2023-05-24T00:58:47;4.97;;;4.03;;
11414;SDS011;5763;42.714;23.244;2023-05-24T01:01:14;5.50;;;4.45;;
11414;SDS011;5763;42.714;23.244;2023-05-24T01:03:43;4.38;;;3.92;;
11414;SDS011;5763;42.714;23.244;2023-05-24T01:06:11;5.20;;;4.07;;
11414;SDS011;5763;42.714;23.244;2023-05-24T01:11:33;4.40;;;3.85;;
11414;SDS011;5763;42.714;23.244;2023-05-24T01:14:09;4.97;;;4.47;;
11414;SDS011;5763;42.714;23.244;2023-05-24T01:16:44;5.53;;;4.15;;
11414;SDS011;5763;42.714;23.244;2023-05-24T01:22:27;5.03;;;3.80;;
11414;SDS011;5763;42.714;23.244;2023-05-24T01:25:07;5.40;;;3.72;;
11414;SDS011;5763;42.714;23.244;2023-05-24T01:27:43;6.65;;;4.45;;
11414;SDS011;5763;42.714;23.244;2023-05-24T01:30:12;4.35;;;3.85;;
11414;SDS011;5763;42.714;23.244;2023-05-24T01:32:39;4.15;;;3.80;;
11414;SDS011;5763;42.714;23.244;2023-05-24T01:35:07;5.35;;;4.18;;
11414;SDS011;5763;42.714;23.244;2023-05-24T01:37:34;5.10;;;4.30;;
11414;SDS011;5763;42.714;23.244;2023-05-24T01:40:01;4.75;;;4.00;;
11414;SDS011;5763;42.714;23.244;2023-05-24T01:42:31;5.07;;;4.03;;
11414;SDS011;5763;42.714;23.244;2023-05-24T01:45:05;4.68;;;3.85;;
11414;SDS011;5763;42.714;23.244;2023-05-24T01:47:42;5.25;;;4.05;;
11414;SDS011;5763;42.714;23.244;2023-05-24T01:50:19;5.30;;;4.13;;
11414;SDS011;5763;42.714;23.244;2023-05-24T01:52:51;4.60;;;4.13;;
11414;SDS011;5763;42.714;23.244;2023-05-24T01:55:18;5.15;;;4.10;;
11414;SDS011;5763;42.714;23.244;2023-05-24T01:57:47;4.97;;;3.88;;
11414;SDS011;5763;42.714;23.244;2023-05-24T02:00:18;4.90;;;4.22;;
11414;SDS011;5763;42.714;23.244;2023-05-24T02:02:46;4.75;;;4.20;;
11414;SDS011;5763;42.714;23.244;2023-05-24T02:05:13;5.50;;;4.00;;
11414;SDS011;5763;42.714;23.244;2023-05-24T02:07:40;4.65;;;3.85;;
11414;SDS011;5763;42.714;23.244;2023-05-24T02:10:07;6.05;;;4.43;;
11414;SDS011;5763;42.714;23.244;2023-05-24T02:12:34;4.45;;;3.90;;
11414;SDS011;5763;42.714;23.244;2023-05-24T02:15:02;5.57;;;4.40;;
11414;SDS011;5763;42.714;23.244;2023-05-24T02:17:31;8.05;;;3.88;;
11414;SDS011;5763;42.714;23.244;2023-05-24T02:19:59;7.90;;;4.60;;
11414;SDS011;5763;42.714;23.244;2023-05-24T02:22:26;4.75;;;4.03;;
11414;SDS011;5763;42.714;23.244;2023-05-24T02:24:53;7.20;;;4.68;;
11414;SDS011;5763;42.714;23.244;2023-05-24T02:27:20;4.82;;;4.20;;
11414;SDS011;5763;42.714;23.244;2023-05-24T02:29:46;5.85;;;4.85;;
11414;SDS011;5763;42.714;23.244;2023-05-24T02:32:13;6.00;;;4.50;;
11414;SDS011;5763;42.714;23.244;2023-05-24T02:34:41;4.90;;;3.90;;
11414;SDS011;5763;42.714;23.244;2023-05-24T02:37:08;8.52;;;4.85;;
11414;SDS011;5763;42.714;23.244;2023-05-24T02:39:38;5.32;;;4.72;;
11414;SDS011;5763;42.714;23.244;2023-05-24T02:42:05;7.53;;;4.50;;
11414;SDS011;5763;42.714;23.244;2023-05-24T02:44:32;5.68;;;4.78;;
11414;SDS011;5763;42.714;23.244;2023-05-24T02:46:59;5.05;;;4.30;;
11414;SDS011;5763;42.714;23.244;2023-05-24T02:49:26;5.68;;;4.70;;
11414;SDS011;5763;42.714;23.244;2023-05-24T02:51:54;6.32;;;4.38;;
11414;SDS011;5763;42.714;23.244;2023-05-24T02:54:21;5.25;;;4.70;;
11414;SDS011;5763;42.714;23.244;2023-05-24T02:56:47;5.40;;;4.88;;
11414;SDS011;5763;42.714;23.244;2023-05-24T02:59:14;5.97;;;4.95;;
11414;SDS011;5763;42.714;23.244;2023-05-24T03:01:41;6.82;;;4.80;;
11414;SDS011;5763;42.714;23.244;2023-05-24T03:04:08;7.22;;;5.00;;
11414;SDS011;5763;42.714;23.244;2023-05-24T03:06:35;5.47;;;4.68;;
11414;SDS011;5763;42.714;23.244;2023-05-24T03:09:03;5.78;;;4.72;;
11414;SDS011;5763;42.714;23.244;2023-05-24T03:11:30;7.47;;;5.05;;
11414;SDS011;5763;42.714;23.244;2023-05-24T03:13:57;7.18;;;5.15;;
11414;SDS011;5763;42.714;23.244;2023-05-24T03:16:23;6.70;;;5.60;;
11414;SDS011;5763;42.714;23.244;2023-05-24T03:18:50;7.20;;;5.55;;
11414;SDS011;5763;42.714;23.244;2023-05-24T03:21:19;6.90;;;5.45;;
11414;SDS011;5763;42.714;23.244;2023-05-24T03:23:47;5.68;;;5.10;;
11414;SDS011;5763;42.714;23.244;2023-05-24T03:26:15;7.15;;;5.25;;
11414;SDS011;5763;42.714;23.244;2023-05-24T03:28:43;6.70;;;5.05;;
11414;SDS011;5763;42.714;23.244;2023-05-24T03:31:11;8.57;;;5.60;;
11414;SDS011;5763;42.714;23.244;2023-05-24T03:33:37;7.57;;;5.60;;
11414;SDS011;5763;42.714;23.244;2023-05-24T03:36:04;7.47;;;5.40;;
11414;SDS011;5763;42.714;23.244;2023-05-24T03:38:31;9.50;;;5.63;;
11414;SDS011;5763;42.714;23.244;2023-05-24T03:40:58;8.32;;;5.72;;
11414;SDS011;5763;42.714;23.244;2023-05-24T03:43:26;6.70;;;5.05;;
11414;SDS011;5763;42.714;23.244;2023-05-24T03:45:53;6.07;;;5.47;;
11414;SDS011;5763;42.714;23.244;2023-05-24T03:48:20;7.78;;;5.10;;
11414;SDS011;5763;42.714;23.244;2023-05-24T03:50:47;6.55;;;5.15;;
11414;SDS011;5763;42.714;23.244;2023-05-24T03:53:13;5.70;;;4.88;;
11414;SDS011;5763;42.714;23.244;2023-05-24T03:55:40;9.32;;;4.78;;
11414;SDS011;5763;42.714;23.244;2023-05-24T03:58:07;6.43;;;5.68;;
11414;SDS011;5763;42.714;23.244;2023-05-24T04:00:35;7.72;;;5.50;;
11414;SDS011;5763;42.714;23.244;2023-05-24T04:03:02;7.72;;;5.45;;
11414;SDS011;5763;42.714;23.244;2023-05-24T04:05:30;6.53;;;5.60;;
11414;SDS011;5763;42.714;23.244;2023-05-24T04:07:57;7.97;;;5.53;;
11414;SDS011;5763;42.714;23.244;2023-05-24T04:10:24;7.60;;;5.88;;
11414;SDS011;5763;42.714;23.244;2023-05-24T04:12:50;9.68;;;5.75;;
11414;SDS011;5763;42.714;23.244;2023-05-24T04:15:17;8.60;;;5.78;;
11414;SDS011;5763;42.714;23.244;2023-05-24T04:17:45;6.78;;;5.40;;
11414;SDS011;5763;42.714;23.244;2023-05-24T04:20:12;6.93;;;6.22;;
11414;SDS011;5763;42.714;23.244;2023-05-24T04:22:39;8.52;;;5.88;;
11414;SDS011;5763;42.714;23.244;2023-05-24T04:25:06;8.23;;;5.93;;
11414;SDS011;5763;42.714;23.244;2023-05-24T04:27:33;8.95;;;6.50;;
11414;SDS011;5763;42.714;23.244;2023-05-24T04:30:00;9.02;;;6.35;;
11414;SDS011;5763;42.714;23.244;2023-05-24T04:32:27;8.00;;;6.57;;
11414;SDS011;5763;42.714;23.244;2023-05-24T04:34:55;8.90;;;6.47;;
11414;SDS011;5763;42.714;23.244;2023-05-24T04:37:22;8.02;;;5.78;;
11414;SDS011;5763;42.714;23.244;2023-05-24T04:39:49;8.35;;;5.80;;
11414;SDS011;5763;42.714;23.244;2023-05-24T04:42:15;10.27;;;5.65;;
11414;SDS011;5763;42.714;23.244;2023-05-24T04:44:42;8.23;;;5.82;;
11414;SDS011;5763;42.714;23.244;2023-05-24T04:47:09;7.20;;;5.65;;
11414;SDS011;5763;42.714;23.244;2023-05-24T04:49:37;9.18;;;6.38;;
11414;SDS011;5763;42.714;23.244;2023-05-24T04:52:06;6.68;;;5.68;;
11414;SDS011;5763;42.714;23.244;2023-05-24T04:54:33;7.38;;;5.53;;
11414;SDS011;5763;42.714;23.244;2023-05-24T04:56:59;7.18;;;5.47;;
11414;SDS011;5763;42.714;23.244;2023-05-24T04:59:26;7.13;;;5.30;;
11414;SDS011;5763;42.714;23.244;2023-05-24T05:01:53;8.57;;;5.40;;
11414;SDS011;5763;42.714;23.244;2023-05-24T05:04:19;6.60;;;6.00;;
11414;SDS011;5763;42.714;23.244;2023-05-24T05:06:46;8.57;;;6.32;;
11414;SDS011;5763;42.714;23.244;2023-05-24T05:09:14;6.68;;;6.05;;
11414;SDS011;5763;42.714;23.244;2023-05-24T05:11:41;10.48;;;6.30;;
11414;SDS011;5763;42.714;23.244;2023-05-24T05:14:08;9.38;;;6.60;;
11414;SDS011;5763;42.714;23.244;2023-05-24T05:16:35;10.40;;;6.93;;
11414;SDS011;5763;42.714;23.244;2023-05-24T05:19:02;9.38;;;6.43;;
11414;SDS011;5763;42.714;23.244;2023-05-24T05:21:30;6.75;;;5.78;;
11414;SDS011;5763;42.714;23.244;2023-05-24T05:23:58;8.98;;;6.30;;
11414;SDS011;5763;42.714;23.244;2023-05-24T05:26:27;6.75;;;6.00;;
11414;SDS011;5763;42.714;23.244;2023-05-24T05:28:53;7.95;;;7.03;;
11414;SDS011;5763;42.714;23.244;2023-05-24T05:31:20;8.43;;;6.43;;
11414;SDS011;5763;42.714;23.244;2023-05-24T05:33:47;7.88;;;7.07;;
11414;SDS011;5763;42.714;23.244;2023-05-24T05:36:15;10.52;;;6.60;;
11414;SDS011;5763;42.714;23.244;2023-05-24T05:38:42;7.47;;;6.53;;
11414;SDS011;5763;42.714;23.244;2023-05-24T05:41:09;8.00;;;6.47;;
11414;SDS011;5763;42.714;23.244;2023-05-24T05:43:37;7.82;;;5.95;;
11414;SDS011;5763;42.714;23.244;2023-05-24T05:46:04;8.30;;;6.30;;
11414;SDS011;5763;42.714;23.244;2023-05-24T05:48:31;9.82;;;6.47;;
11414;SDS011;5763;42.714;23.244;2023-05-24T05:50:57;7.63;;;6.45;;
11414;SDS011;5763;42.714;23.244;2023-05-24T05:53:24;9.35;;;6.32;;
11414;SDS011;5763;42.714;23.244;2023-05-24T05:55:51;13.57;;;6.63;;
11414;SDS011;5763;42.714;23.244;2023-05-24T05:58:17;11.05;;;6.93;;
11414;SDS011;5763;42.714;23.244;2023-05-24T06:00:46;7.80;;;7.00;;
11414;SDS011;5763;42.714;23.244;2023-05-24T06:03:13;10.00;;;6.82;;
11414;SDS011;5763;42.714;23.244;2023-05-24T06:05:40;9.43;;;7.47;;
11414;SDS011;5763;42.714;23.244;2023-05-24T06:08:07;8.95;;;7.15;;
11414;SDS011;5763;42.714;23.244;2023-05-24T06:10:33;10.23;;;7.93;;
11414;SDS011;5763;42.714;23.244;2023-05-24T06:13:01;10.50;;;7.30;;
11414;SDS011;5763;42.714;23.244;2023-05-24T06:15:28;11.13;;;7.63;;
11414;SDS011;5763;42.714;23.244;2023-05-24T06:17:58;12.95;;;8.32;;
11414;SDS011;5763;42.714;23.244;2023-05-24T06:20:26;10.27;;;7.30;;
11414;SDS011;5763;42.714;23.244;2023-05-24T06:22:52;8.30;;;7.15;;
11414;SDS011;5763;42.714;23.244;2023-05-24T06:25:19;8.75;;;7.10;;
11414;SDS011;5763;42.714;23.244;2023-05-24T06:27:48;8.25;;;7.10;;
11414;SDS011;5763;42.714;23.244;2023-05-24T06:30:15;11.82;;;6.95;;
11414;SDS011;5763;42.714;23.244;2023-05-24T06:32:43;10.15;;;7.18;;
11414;SDS011;5763;42.714;23.244;2023-05-24T06:35:11;7.35;;;6.65;;
11414;SDS011;5763;42.714;23.244;2023-05-24T06:37:37;10.82;;;7.57;;
11414;SDS011;5763;42.714;23.244;2023-05-24T06:40:05;11.05;;;7.68;;
11414;SDS011;5763;42.714;23.244;2023-05-24T06:42:34;8.90;;;7.13;;
11414;SDS011;5763;42.714;23.244;2023-05-24T06:45:01;11.13;;;6.85;;
11414;SDS011;5763;42.714;23.244;2023-05-24T06:47:27;9.75;;;7.10;;
11414;SDS011;5763;42.714;23.244;2023-05-24T06:49:54;9.15;;;6.68;;
11414;SDS011;5763;42.714;23.244;2023-05-24T06:52:22;9.25;;;7.38;;
11414;SDS011;5763;42.714;23.244;2023-05-24T06:54:49;10.10;;;7.00;;
11414;SDS011;5763;42.714;23.244;2023-05-24T06:57:17;8.80;;;6.78;;
11414;SDS011;5763;42.714;23.244;2023-05-24T06:59:44;9.75;;;6.22;;
11414;SDS011;5763;42.714;23.244;2023-05-24T07:02:10;8.38;;;6.20;;
11414;SDS011;5763;42.714;23.244;2023-05-24T07:04:37;6.78;;;6.05;;
11414;SDS011;5763;42.714;23.244;2023-05-24T07:07:05;7.05;;;6.35;;
11414;SDS011;5763;42.714;23.244;2023-05-24T07:09:34;8.60;;;7.38;;
11414;SDS011;5763;42.714;23.244;2023-05-24T07:12:01;8.55;;;6.93;;
11414;SDS011;5763;42.714;23.244;2023-05-24T07:14:27;9.05;;;6.50;;
11414;SDS011;5763;42.714;23.244;2023-05-24T07:16:54;8.93;;;6.43;;
11414;SDS011;5763;42.714;23.244;2023-05-24T07:19:23;7.40;;;6.50;;
11414;SDS011;5763;42.714;23.244;2023-05-24T07:21:53;8.90;;;6.60;;
11414;SDS011;5763;42.714;23.244;2023-05-24T07:24:20;8.05;;;6.38;;
11414;SDS011;5763;42.714;23.244;2023-05-24T07:26:49;6.97;;;5.78;;
11414;SDS011;5763;42.714;23.244;2023-05-24T07:29:16;8.02;;;5.57;;
11414;SDS011;5763;42.714;23.244;2023-05-24T07:31:43;9.95;;;6.75;;
11414;SDS011;5763;42.714;23.244;2023-05-24T07:34:10;6.50;;;5.78;;
11414;SDS011;5763;42.714;23.244;2023-05-24T07:36:37;10.50;;;5.95;;
11414;SDS011;5763;42.714;23.244;2023-05-24T07:39:05;10.07;;;6.30;;
11414;SDS011;5763;42.714;23.244;2023-05-24T07:41:33;7.85;;;6.57;;
11414;SDS011;5763;42.714;23.244;2023-05-24T07:44:02;5.35;;;4.80;;
11414;SDS011;5763;42.714;23.244;2023-05-24T07:46:29;5.47;;;4.60;;
11414;SDS011;5763;42.714;23.244;2023-05-24T07:48:55;7.13;;;4.40;;
11414;SDS011;5763;42.714;23.244;2023-05-24T07:51:22;5.13;;;4.45;;
11414;SDS011;5763;42.714;23.244;2023-05-24T07:53:49;9.93;;;5.03;;
11414;SDS011;5763;42.714;23.244;2023-05-24T07:56:16;5.75;;;4.18;;
11414;SDS011;5763;42.714;23.244;2023-05-24T07:58:43;7.20;;;4.90;;
11414;SDS011;5763;42.714;23.244;2023-05-24T08:01:12;6.78;;;5.00;;
11414;SDS011;5763;42.714;23.244;2023-05-24T08:03:39;7.88;;;5.10;;
11414;SDS011;5763;42.714;23.244;2023-05-24T08:06:06;5.70;;;4.75;;
11414;SDS011;5763;42.714;23.244;2023-05-24T08:08:34;9.02;;;5.72;;
11414;SDS011;5763;42.714;23.244;2023-05-24T08:11:00;6.45;;;5.05;;
11414;SDS011;5763;42.714;23.244;2023-05-24T08:13:27;5.07;;;4.55;;
11414;SDS011;5763;42.714;23.244;2023-05-24T08:15:54;8.68;;;4.93;;
11414;SDS011;5763;42.714;23.244;2023-05-24T08:18:23;7.95;;;5.40;;
11414;SDS011;5763;42.714;23.244;2023-05-24T08:20:50;5.57;;;3.70;;
11414;SDS011;5763;42.714;23.244;2023-05-24T08:23:17;4.60;;;3.42;;
11414;SDS011;5763;42.714;23.244;2023-05-24T08:25:43;3.88;;;3.47;;
11414;SDS011;5763;42.714;23.244;2023-05-24T08:28:10;8.15;;;4.50;;
11414;SDS011;5763;42.714;23.244;2023-05-24T08:30:37;7.40;;;4.30;;
11414;SDS011;5763;42.714;23.244;2023-05-24T08:33:04;5.60;;;3.85;;
11414;SDS011;5763;42.714;23.244;2023-05-24T08:35:32;6.47;;;4.93;;
11414;SDS011;5763;42.714;23.244;2023-05-24T08:38:00;5.55;;;4.20;;
11414;SDS011;5763;42.714;23.244;2023-05-24T08:40:26;6.63;;;4.38;;
11414;SDS011;5763;42.714;23.244;2023-05-24T08:42:53;5.03;;;3.72;;
11414;SDS011;5763;42.714;23.244;2023-05-24T08:45:24;3.22;;;2.67;;
11414;SDS011;5763;42.714;23.244;2023-05-24T08:47:52;4.38;;;3.30;;
11414;SDS011;5763;42.714;23.244;2023-05-24T08:50:20;5.75;;;3.70;;
11414;SDS011;5763;42.714;23.244;2023-05-24T08:52:49;8.02;;;4.35;;
11414;SDS011;5763;42.714;23.244;2023-05-24T08:55:17;5.97;;;3.17;;
11414;SDS011;5763;42.714;23.244;2023-05-24T08:57:44;3.33;;;3.00;;
11414;SDS011;5763;42.714;23.244;2023-05-24T09:00:13;3.50;;;3.00;;
11414;SDS011;5763;42.714;23.244;2023-05-24T09:02:41;4.18;;;3.03;;
11414;SDS011;5763;42.714;23.244;2023-05-24T09:05:10;4.85;;;3.00;;
11414;SDS011;5763;42.714;23.244;2023-05-24T09:07:38;3.60;;;3.25;;
11414;SDS011;5763;42.714;23.244;2023-05-24T09:10:08;5.65;;;2.67;;
11414;SDS011;5763;42.714;23.244;2023-05-24T09:12:36;5.20;;;3.15;;
11414;SDS011;5763;42.714;23.244;2023-05-24T09:15:04;7.13;;;3.17;;
11414;SDS011;5763;42.714;23.244;2023-05-24T09:17:33;6.50;;;3.50;;
11414;SDS011;5763;42.714;23.244;2023-05-24T09:20:01;4.38;;;3.40;;
11414;SDS011;5763;42.714;23.244;2023-05-24T09:22:30;4.95;;;3.40;;
11414;SDS011;5763;42.714;23.244;2023-05-24T09:24:58;6.10;;;3.58;;
11414;SDS011;5763;42.714;23.244;2023-05-24T09:27:28;4.63;;;4.05;;
11414;SDS011;5763;42.714;23.244;2023-05-24T09:29:58;4.00;;;3.60;;
11414;SDS011;5763;42.714;23.244;2023-05-24T09:32:25;3.58;;;3.28;;
11414;SDS011;5763;42.714;23.244;2023-05-24T09:34:53;5.53;;;3.90;;
11414;SDS011;5763;42.714;23.244;2023-05-24T09:37:23;5.60;;;2.95;;
11414;SDS011;5763;42.714;23.244;2023-05-24T09:39:52;5.13;;;3.38;;
11414;SDS011;5763;42.714;23.244;2023-05-24T09:42:20;4.47;;;3.10;;
11414;SDS011;5763;42.714;23.244;2023-05-24T09:44:49;4.97;;;2.92;;
11414;SDS011;5763;42.714;23.244;2023-05-24T09:47:27;3.47;;;3.17;;
11414;SDS011;5763;42.714;23.244;2023-05-24T09:49:54;4.60;;;3.10;;
11414;SDS011;5763;42.714;23.244;2023-05-24T09:52:21;5.30;;;3.20;;
11414;SDS011;5763;42.714;23.244;2023-05-24T09:54:48;3.80;;;3.17;;
11414;SDS011;5763;42.714;23.244;2023-05-24T09:57:15;5.45;;;3.70;;
11414;SDS011;5763;42.714;23.244;2023-05-24T09:59:42;4.28;;;3.38;;
11414;SDS011;5763;42.714;23.244;2023-05-24T10:02:10;2.88;;;2.67;;
11414;SDS011;5763;42.714;23.244;2023-05-24T10:04:37;3.50;;;3.20;;
11414;SDS011;5763;42.714;23.244;2023-05-24T10:07:04;5.40;;;3.30;;
11414;SDS011;5763;42.714;23.244;2023-05-24T10:09:32;3.13;;;2.83;;
11414;SDS011;5763;42.714;23.244;2023-05-24T10:12:00;3.67;;;3.28;;
11414;SDS011;5763;42.714;23.244;2023-05-24T10:14:30;3.42;;;2.92;;
11414;SDS011;5763;42.714;23.244;2023-05-24T10:17:00;3.83;;;3.10;;
11414;SDS011;5763;42.714;23.244;2023-05-24T10:19:29;3.80;;;2.83;;
11414;SDS011;5763;42.714;23.244;2023-05-24T10:21:56;4.07;;;2.75;;
11414;SDS011;5763;42.714;23.244;2023-05-24T10:24:25;4.70;;;2.80;;
11414;SDS011;5763;42.714;23.244;2023-05-24T10:26:57;3.45;;;2.60;;
11414;SDS011;5763;42.714;23.244;2023-05-24T10:29:32;4.13;;;3.03;;
11414;SDS011;5763;42.714;23.244;2023-05-24T10:32:06;3.42;;;2.75;;
11414;SDS011;5763;42.714;23.244;2023-05-24T10:34:35;3.03;;;2.83;;
11414;SDS011;5763;42.714;23.244;2023-05-24T10:37:04;3.38;;;2.97;;
11414;SDS011;5763;42.714;23.244;2023-05-24T10:39:32;3.22;;;2.25;;
11414;SDS011;5763;42.714;23.244;2023-05-24T10:42:00;3.30;;;2.63;;
11414;SDS011;5763;42.714;23.244;2023-05-24T10:44:28;3.38;;;2.70;;
11414;SDS011;5763;42.714;23.244;2023-05-24T10:47:05;3.65;;;2.35;;
11414;SDS011;5763;42.714;23.244;2023-05-24T10:49:34;4.90;;;2.63;;
11414;SDS011;5763;42.714;23.244;2023-05-24T10:52:06;3.85;;;3.50;;
11414;SDS011;5763;42.714;23.244;2023-05-24T10:54:34;3.42;;;2.58;;
11414;SDS011;5763;42.714;23.244;2023-05-24T10:57:02;3.00;;;2.70;;
11414;SDS011;5763;42.714;23.244;2023-05-24T10:59:31;3.17;;;2.72;;
11414;SDS011;5763;42.714;23.244;2023-05-24T11:02:02;4.43;;;2.90;;
11414;SDS011;5763;42.714;23.244;2023-05-24T11:04:35;3.47;;;2.60;;
11414;SDS011;5763;42.714;23.244;2023-05-24T11:07:07;3.95;;;3.15;;
11414;SDS011;5763;42.714;23.244;2023-05-24T11:09:36;3.63;;;3.00;;
11414;SDS011;5763;42.714;23.244;2023-05-24T11:12:05;4.85;;;3.10;;
11414;SDS011;5763;42.714;23.244;2023-05-24T11:14:35;3.47;;;2.60;;
11414;SDS011;5763;42.714;23.244;2023-05-24T11:17:04;3.88;;;2.88;;
11414;SDS011;5763;42.714;23.244;2023-05-24T11:19:32;3.55;;;3.10;;
11414;SDS011;5763;42.714;23.244;2023-05-24T11:22:02;3.10;;;2.80;;
11414;SDS011;5763;42.714;23.244;2023-05-24T11:24:31;2.92;;;2.72;;
11414;SDS011;5763;42.714;23.244;2023-05-24T11:26:59;4.32;;;2.97;;
11414;SDS011;5763;42.714;23.244;2023-05-24T11:29:27;3.63;;;3.33;;
11414;SDS011;5763;42.714;23.244;2023-05-24T11:31:55;3.20;;;2.90;;
11414;SDS011;5763;42.714;23.244;2023-05-24T11:34:25;3.67;;;3.20;;
11414;SDS011;5763;42.714;23.244;2023-05-24T11:36:52;5.95;;;3.20;;
11414;SDS011;5763;42.714;23.244;2023-05-24T11:39:21;3.75;;;3.42;;
11414;SDS011;5763;42.714;23.244;2023-05-24T11:41:49;3.53;;;3.10;;
11414;SDS011;5763;42.714;23.244;2023-05-24T11:44:19;3.42;;;3.10;;
11414;SDS011;5763;42.714;23.244;2023-05-24T11:46:46;3.25;;;3.05;;
11414;SDS011;5763;42.714;23.244;2023-05-24T11:49:13;4.13;;;2.78;;
11414;SDS011;5763;42.714;23.244;2023-05-24T11:51:41;4.15;;;2.97;;
11414;SDS011;5763;42.714;23.244;2023-05-24T11:54:08;3.78;;;3.25;;
11414;SDS011;5763;42.714;23.244;2023-05-24T11:56:37;3.92;;;2.80;;
11414;SDS011;5763;42.714;23.244;2023-05-24T11:59:13;3.10;;;2.80;;
11414;SDS011;5763;42.714;23.244;2023-05-24T12:01:40;4.10;;;3.05;;
11414;SDS011;5763;42.714;23.244;2023-05-24T12:04:08;3.58;;;2.90;;
11414;SDS011;5763;42.714;23.244;2023-05-24T12:06:36;3.13;;;2.58;;
11414;SDS011;5763;42.714;23.244;2023-05-24T12:09:04;4.13;;;2.80;;
11414;SDS011;5763;42.714;23.244;2023-05-24T12:11:38;3.85;;;3.10;;
11414;SDS011;5763;42.714;23.244;2023-05-24T12:14:06;3.25;;;2.95;;
11414;SDS011;5763;42.714;23.244;2023-05-24T12:16:36;3.42;;;2.97;;
11414;SDS011;5763;42.714;23.244;2023-05-24T12:19:03;6.38;;;3.78;;
11414;SDS011;5763;42.714;23.244;2023-05-24T12:21:30;3.13;;;2.75;;
11414;SDS011;5763;42.714;23.244;2023-05-24T12:24:08;3.97;;;3.38;;
11414;SDS011;5763;42.714;23.244;2023-05-24T12:26:39;3.28;;;2.72;;
11414;SDS011;5763;42.714;23.244;2023-05-24T12:29:06;5.38;;;3.30;;
11414;SDS011;5763;42.714;23.244;2023-05-24T12:31:33;3.55;;;3.00;;
11414;SDS011;5763;42.714;23.244;2023-05-24T12:34:01;3.75;;;2.70;;
11414;SDS011;5763;42.714;23.244;2023-05-24T12:36:29;4.57;;;2.85;;
11414;SDS011;5763;42.714;23.244;2023-05-24T12:38:56;3.38;;;3.05;;
11414;SDS011;5763;42.714;23.244;2023-05-24T12:41:23;5.10;;;2.90;;
11414;SDS011;5763;42.714;23.244;2023-05-24T12:43:53;4.05;;;3.00;;
11414;SDS011;5763;42.714;23.244;2023-05-24T12:46:20;3.15;;;2.50;;
11414;SDS011;5763;42.714;23.244;2023-05-24T12:48:47;5.75;;;3.20;;
11414;SDS011;5763;42.714;23.244;2023-05-24T12:51:14;4.88;;;3.20;;
11414;SDS011;5763;42.714;23.244;2023-05-24T12:53:41;3.20;;;2.80;;
11414;SDS011;5763;42.714;23.244;2023-05-24T12:56:08;4.40;;;2.88;;
11414;SDS011;5763;42.714;23.244;2023-05-24T12:58:34;3.83;;;2.70;;
11414;SDS011;5763;42.714;23.244;2023-05-24T13:01:02;4.03;;;3.10;;
11414;SDS011;5763;42.714;23.244;2023-05-24T13:03:29;3.13;;;2.67;;
11414;SDS011;5763;42.714;23.244;2023-05-24T13:05:56;3.80;;;2.80;;
11414;SDS011;5763;42.714;23.244;2023-05-24T13:08:24;4.65;;;3.10;;
11414;SDS011;5763;42.714;23.244;2023-05-24T13:10:52;4.53;;;2.78;;
11414;SDS011;5763;42.714;23.244;2023-05-24T13:13:19;3.17;;;2.88;;
11414;SDS011;5763;42.714;23.244;2023-05-24T13:15:46;5.00;;;2.83;;
11414;SDS011;5763;42.714;23.244;2023-05-24T13:18:14;5.78;;;3.13;;
11414;SDS011;5763;42.714;23.244;2023-05-24T13:20:41;4.95;;;3.30;;
11414;SDS011;5763;42.714;23.244;2023-05-24T13:23:07;3.67;;;3.00;;
11414;SDS011;5763;42.714;23.244;2023-05-24T13:25:36;3.78;;;3.38;;
11414;SDS011;5763;42.714;23.244;2023-05-24T13:28:02;3.70;;;3.00;;
11414;SDS011;5763;42.714;23.244;2023-05-24T13:30:29;4.10;;;3.45;;
11414;SDS011;5763;42.714;23.244;2023-05-24T13:32:56;3.33;;;3.03;;
11414;SDS011;5763;42.714;23.244;2023-05-24T13:35:25;4.60;;;3.25;;
11414;SDS011;5763;42.714;23.244;2023-05-24T13:37:52;6.47;;;3.63;;
11414;SDS011;5763;42.714;23.244;2023-05-24T13:40:19;5.03;;;3.67;;
11414;SDS011;5763;42.714;23.244;2023-05-24T13:42:49;7.43;;;3.65;;
11414;SDS011;5763;42.714;23.244;2023-05-24T13:45:15;6.03;;;3.35;;
11414;SDS011;5763;42.714;23.244;2023-05-24T13:47:42;4.93;;;3.65;;
11414;SDS011;5763;42.714;23.244;2023-05-24T13:50:09;6.47;;;3.80;;
11414;SDS011;5763;42.714;23.244;2023-05-24T13:52:37;4.20;;;3.80;;
11414;SDS011;5763;42.714;23.244;2023-05-24T13:55:05;8.02;;;7.22;;
11414;SDS011;5763;42.714;23.244;2023-05-24T13:57:32;6.20;;;4.22;;
11414;SDS011;5763;42.714;23.244;2023-05-24T13:59:59;3.90;;;3.22;;
11414;SDS011;5763;42.714;23.244;2023-05-24T14:02:26;4.85;;;3.17;;
11414;SDS011;5763;42.714;23.244;2023-05-24T14:04:52;5.38;;;3.65;;
11414;SDS011;5763;42.714;23.244;2023-05-24T14:07:20;5.50;;;3.72;;
11414;SDS011;5763;42.714;23.244;2023-05-24T14:09:48;4.78;;;3.58;;
11414;SDS011;5763;42.714;23.244;2023-05-24T14:12:15;3.80;;;3.50;;
11414;SDS011;5763;42.714;23.244;2023-05-24T14:14:42;3.80;;;3.38;;
11414;SDS011;5763;42.714;23.244;2023-05-24T14:17:10;4.43;;;3.05;;
11414;SDS011;5763;42.714;23.244;2023-05-24T14:19:37;3.38;;;3.08;;
11414;SDS011;5763;42.714;23.244;2023-05-24T14:22:04;3.50;;;3.20;;
11414;SDS011;5763;42.714;23.244;2023-05-24T14:24:31;3.33;;;3.03;;
11414;SDS011;5763;42.714;23.244;2023-05-24T14:26:59;3.42;;;2.90;;
11414;SDS011;5763;42.714;23.244;2023-05-24T14:29:26;3.60;;;2.95;;
11414;SDS011;5763;42.714;23.244;2023-05-24T14:31:53;10.05;;;9.05;;
11414;SDS011;5763;42.714;23.244;2023-05-24T14:34:19;5.05;;;4.07;;
11414;SDS011;5763;42.714;23.244;2023-05-24T14:36:46;3.35;;;3.08;;
11414;SDS011;5763;42.714;23.244;2023-05-24T14:39:13;3.78;;;3.08;;
11414;SDS011;5763;42.714;23.244;2023-05-24T14:41:39;4.72;;;2.90;;
11414;SDS011;5763;42.714;23.244;2023-05-24T14:44:08;2.92;;;2.70;;
11414;SDS011;5763;42.714;23.244;2023-05-24T14:46:34;3.63;;;3.05;;
11414;SDS011;5763;42.714;23.244;2023-05-24T14:49:01;6.35;;;4.80;;
11414;SDS011;5763;42.714;23.244;2023-05-24T14:51:28;5.72;;;4.70;;
11414;SDS011;5763;42.714;23.244;2023-05-24T14:53:55;8.60;;;5.90;;
11414;SDS011;5763;42.714;23.244;2023-05-24T14:56:22;7.35;;;5.85;;
11414;SDS011;5763;42.714;23.244;2023-05-24T14:58:49;8.15;;;5.47;;